sensor_id;sensor_type;location;lat;lon;timestamp;P1;durP1;ratioP1;P2;durP2;ratioP2
21837;SDS011;11081;45.946;6.140;2023-10-19T00:02:48;25.35;;;13.07;;
21837;SDS011;11081;45.946;6.140;2023-10-19T00:05:18;24.95;;;13.35;;
21837;SDS011;11081;45.946;6.140;2023-10-19T00:07:46;28.33;;;16.02;;
21837;SDS011;11081;45.946;6.140;2023-10-19T00:10:13;27.70;;;16.55;;
21837;SDS011;11081;45.946;6.140;2023-10-19T00:12:43;28.80;;;14.38;;
21837;SDS011;11081;45.946;6.140;2023-10-19T00:15:10;19.48;;;10.77;;
21837;SDS011;11081;45.946;6.140;2023-10-19T00:17:41;24.17;;;11.82;;
21837;SDS011;11081;45.946;6.140;2023-10-19T00:20:12;18.63;;;10.07;;
21837;SDS011;11081;45.946;6.140;2023-10-19T00:22:54;19.02;;;11.10;;
21837;SDS011;11081;45.946;6.140;2023-10-19T00:25:23;30.40;;;13.93;;
21837;SDS011;11081;45.946;6.140;2023-10-19T00:27:51;24.48;;;13.45;;
21837;SDS011;11081;45.946;6.140;2023-10-19T00:30:20;24.60;;;12.70;;
21837;SDS011;11081;45.946;6.140;2023-10-19T00:32:50;19.73;;;10.75;;
21837;SDS011;11081;45.946;6.140;2023-10-19T00:35:20;18.20;;;11.30;;
21837;SDS011;11081;45.946;6.140;2023-10-19T00:38:00;20.35;;;11.48;;
21837;SDS011;11081;45.946;6.140;2023-10-19T00:40:50;18.17;;;9.55;;
21837;SDS011;11081;45.946;6.140;2023-10-19T00:43:26;14.95;;;8.15;;
21837;SDS011;11081;45.946;6.140;2023-10-19T00:45:59;15.60;;;8.30;;
21837;SDS011;11081;45.946;6.140;2023-10-19T00:48:30;22.50;;;9.30;;
21837;SDS011;11081;45.946;6.140;2023-10-19T00:51:02;19.20;;;9.40;;
21837;SDS011;11081;45.946;6.140;2023-10-19T00:53:53;14.93;;;9.73;;
21837;SDS011;11081;45.946;6.140;2023-10-19T00:56:23;20.52;;;9.40;;
21837;SDS011;11081;45.946;6.140;2023-10-19T00:58:53;22.27;;;8.98;;
21837;SDS011;11081;45.946;6.140;2023-10-19T01:01:28;15.90;;;9.38;;
21837;SDS011;11081;45.946;6.140;2023-10-19T01:06:50;16.10;;;7.43;;
21837;SDS011;11081;45.946;6.140;2023-10-19T01:09:38;11.85;;;6.90;;
21837;SDS011;11081;45.946;6.140;2023-10-19T01:12:10;12.95;;;7.07;;
21837;SDS011;11081;45.946;6.140;2023-10-19T01:15:00;12.05;;;7.15;;
21837;SDS011;11081;45.946;6.140;2023-10-19T01:17:32;17.80;;;8.40;;
21837;SDS011;11081;45.946;6.140;2023-10-19T01:20:07;18.15;;;8.50;;
21837;SDS011;11081;45.946;6.140;2023-10-19T01:22:49;18.85;;;8.80;;
21837;SDS011;11081;45.946;6.140;2023-10-19T01:25:20;18.75;;;9.38;;
21837;SDS011;11081;45.946;6.140;2023-10-19T01:28:01;14.38;;;8.23;;
21837;SDS011;11081;45.946;6.140;2023-10-19T01:30:35;14.55;;;8.75;;
21837;SDS011;11081;45.946;6.140;2023-10-19T01:33:04;19.80;;;9.23;;
21837;SDS011;11081;45.946;6.140;2023-10-19T01:35:39;18.77;;;9.15;;
21837;SDS011;11081;45.946;6.140;2023-10-19T01:38:23;12.20;;;6.60;;
21837;SDS011;11081;45.946;6.140;2023-10-19T01:40:51;15.48;;;7.53;;
21837;SDS011;11081;45.946;6.140;2023-10-19T01:43:21;14.07;;;6.95;;
21837;SDS011;11081;45.946;6.140;2023-10-19T01:45:52;13.48;;;7.47;;
21837;SDS011;11081;45.946;6.140;2023-10-19T01:48:20;14.10;;;7.88;;
21837;SDS011;11081;45.946;6.140;2023-10-19T01:50:59;13.60;;;7.07;;
21837;SDS011;11081;45.946;6.140;2023-10-19T01:53:27;11.88;;;6.93;;
21837;SDS011;11081;45.946;6.140;2023-10-19T01:55:56;9.13;;;6.38;;
21837;SDS011;11081;45.946;6.140;2023-10-19T01:58:24;11.23;;;6.10;;
21837;SDS011;11081;45.946;6.140;2023-10-19T02:00:53;9.98;;;3.95;;
21837;SDS011;11081;45.946;6.140;2023-10-19T02:03:22;11.77;;;4.70;;
21837;SDS011;11081;45.946;6.140;2023-10-19T02:05:56;10.60;;;4.80;;
21837;SDS011;11081;45.946;6.140;2023-10-19T02:08:25;7.53;;;4.70;;
21837;SDS011;11081;45.946;6.140;2023-10-19T02:10:54;9.40;;;4.28;;
21837;SDS011;11081;45.946;6.140;2023-10-19T02:13:22;9.00;;;4.63;;
21837;SDS011;11081;45.946;6.140;2023-10-19T02:15:50;7.88;;;4.57;;
21837;SDS011;11081;45.946;6.140;2023-10-19T02:18:17;6.97;;;3.72;;
21837;SDS011;11081;45.946;6.140;2023-10-19T02:20:45;9.38;;;4.07;;
21837;SDS011;11081;45.946;6.140;2023-10-19T02:23:14;6.72;;;3.90;;
21837;SDS011;11081;45.946;6.140;2023-10-19T02:25:42;9.25;;;3.55;;
21837;SDS011;11081;45.946;6.140;2023-10-19T02:28:11;9.63;;;4.18;;
21837;SDS011;11081;45.946;6.140;2023-10-19T02:30:39;7.53;;;3.92;;
21837;SDS011;11081;45.946;6.140;2023-10-19T02:33:09;7.75;;;4.03;;
21837;SDS011;11081;45.946;6.140;2023-10-19T02:35:38;8.55;;;3.67;;
21837;SDS011;11081;45.946;6.140;2023-10-19T02:38:07;10.30;;;4.65;;
21837;SDS011;11081;45.946;6.140;2023-10-19T02:40:35;6.65;;;4.80;;
21837;SDS011;11081;45.946;6.140;2023-10-19T02:43:04;7.28;;;4.32;;
21837;SDS011;11081;45.946;6.140;2023-10-19T02:45:34;5.13;;;4.20;;
21837;SDS011;11081;45.946;6.140;2023-10-19T02:48:01;5.30;;;4.20;;
21837;SDS011;11081;45.946;6.140;2023-10-19T02:50:30;9.48;;;3.97;;
21837;SDS011;11081;45.946;6.140;2023-10-19T02:53:00;5.10;;;3.25;;
21837;SDS011;11081;45.946;6.140;2023-10-19T02:55:31;5.43;;;3.58;;
21837;SDS011;11081;45.946;6.140;2023-10-19T02:57:58;5.82;;;3.22;;
21837;SDS011;11081;45.946;6.140;2023-10-19T03:00:26;6.60;;;3.28;;
21837;SDS011;11081;45.946;6.140;2023-10-19T03:03:02;5.35;;;2.92;;
21837;SDS011;11081;45.946;6.140;2023-10-19T03:05:31;7.25;;;2.40;;
21837;SDS011;11081;45.946;6.140;2023-10-19T03:08:01;4.65;;;1.85;;
21837;SDS011;11081;45.946;6.140;2023-10-19T03:10:32;5.50;;;2.20;;
21837;SDS011;11081;45.946;6.140;2023-10-19T03:13:08;3.53;;;2.15;;
21837;SDS011;11081;45.946;6.140;2023-10-19T03:15:37;6.68;;;2.03;;
21837;SDS011;11081;45.946;6.140;2023-10-19T03:18:10;4.90;;;2.15;;
21837;SDS011;11081;45.946;6.140;2023-10-19T03:20:39;4.60;;;2.28;;
21837;SDS011;11081;45.946;6.140;2023-10-19T03:23:08;4.68;;;2.10;;
21837;SDS011;11081;45.946;6.140;2023-10-19T03:25:37;3.33;;;1.92;;
21837;SDS011;11081;45.946;6.140;2023-10-19T03:28:23;8.52;;;1.95;;
21837;SDS011;11081;45.946;6.140;2023-10-19T03:30:54;4.47;;;2.15;;
21837;SDS011;11081;45.946;6.140;2023-10-19T03:33:23;5.38;;;2.00;;
21837;SDS011;11081;45.946;6.140;2023-10-19T03:35:54;4.32;;;2.08;;
21837;SDS011;11081;45.946;6.140;2023-10-19T03:38:22;4.30;;;2.30;;
21837;SDS011;11081;45.946;6.140;2023-10-19T03:40:50;3.63;;;2.00;;
21837;SDS011;11081;45.946;6.140;2023-10-19T03:43:25;5.45;;;2.42;;
21837;SDS011;11081;45.946;6.140;2023-10-19T03:45:54;3.28;;;1.90;;
21837;SDS011;11081;45.946;6.140;2023-10-19T03:48:26;6.85;;;2.63;;
21837;SDS011;11081;45.946;6.140;2023-10-19T03:51:00;4.05;;;2.22;;
21837;SDS011;11081;45.946;6.140;2023-10-19T03:53:29;5.85;;;3.40;;
21837;SDS011;11081;45.946;6.140;2023-10-19T03:55:58;6.80;;;3.00;;
21837;SDS011;11081;45.946;6.140;2023-10-19T03:58:29;10.40;;;3.85;;
21837;SDS011;11081;45.946;6.140;2023-10-19T04:00:57;7.35;;;3.92;;
21837;SDS011;11081;45.946;6.140;2023-10-19T04:03:33;8.88;;;4.53;;
21837;SDS011;11081;45.946;6.140;2023-10-19T04:06:03;7.25;;;3.83;;
21837;SDS011;11081;45.946;6.140;2023-10-19T04:08:31;6.20;;;3.20;;
21837;SDS011;11081;45.946;6.140;2023-10-19T04:11:03;7.35;;;3.67;;
21837;SDS011;11081;45.946;6.140;2023-10-19T04:13:48;6.90;;;4.18;;
21837;SDS011;11081;45.946;6.140;2023-10-19T04:16:19;7.95;;;3.83;;
21837;SDS011;11081;45.946;6.140;2023-10-19T04:18:49;7.10;;;4.38;;
21837;SDS011;11081;45.946;6.140;2023-10-19T04:21:17;5.78;;;3.40;;
21837;SDS011;11081;45.946;6.140;2023-10-19T04:23:45;6.72;;;3.40;;
21837;SDS011;11081;45.946;6.140;2023-10-19T04:26:14;5.75;;;3.83;;
21837;SDS011;11081;45.946;6.140;2023-10-19T04:28:45;7.88;;;3.03;;
21837;SDS011;11081;45.946;6.140;2023-10-19T04:31:16;5.75;;;3.35;;
21837;SDS011;11081;45.946;6.140;2023-10-19T04:33:45;5.93;;;3.58;;
21837;SDS011;11081;45.946;6.140;2023-10-19T04:36:15;5.28;;;3.22;;
21837;SDS011;11081;45.946;6.140;2023-10-19T04:38:47;4.10;;;2.70;;
21837;SDS011;11081;45.946;6.140;2023-10-19T04:41:15;4.35;;;2.80;;
21837;SDS011;11081;45.946;6.140;2023-10-19T04:43:43;5.70;;;3.00;;
21837;SDS011;11081;45.946;6.140;2023-10-19T04:46:16;4.10;;;2.58;;
21837;SDS011;11081;45.946;6.140;2023-10-19T04:48:45;6.20;;;3.03;;
21837;SDS011;11081;45.946;6.140;2023-10-19T04:51:17;5.97;;;2.50;;
21837;SDS011;11081;45.946;6.140;2023-10-19T04:53:45;6.88;;;3.08;;
21837;SDS011;11081;45.946;6.140;2023-10-19T04:56:13;5.47;;;2.42;;
21837;SDS011;11081;45.946;6.140;2023-10-19T04:58:41;6.45;;;2.38;;
21837;SDS011;11081;45.946;6.140;2023-10-19T05:01:09;3.95;;;2.63;;
21837;SDS011;11081;45.946;6.140;2023-10-19T05:03:38;6.43;;;2.55;;
21837;SDS011;11081;45.946;6.140;2023-10-19T05:06:06;6.93;;;2.47;;
21837;SDS011;11081;45.946;6.140;2023-10-19T05:08:37;5.40;;;2.40;;
21837;SDS011;11081;45.946;6.140;2023-10-19T05:11:05;5.03;;;2.45;;
21837;SDS011;11081;45.946;6.140;2023-10-19T05:13:33;4.13;;;2.13;;
21837;SDS011;11081;45.946;6.140;2023-10-19T05:16:01;5.72;;;2.13;;
21837;SDS011;11081;45.946;6.140;2023-10-19T05:18:29;5.82;;;2.22;;
21837;SDS011;11081;45.946;6.140;2023-10-19T05:20:57;6.05;;;2.50;;
21837;SDS011;11081;45.946;6.140;2023-10-19T05:23:25;4.80;;;2.00;;
21837;SDS011;11081;45.946;6.140;2023-10-19T05:26:00;3.30;;;1.45;;
21837;SDS011;11081;45.946;6.140;2023-10-19T05:28:30;3.78;;;1.90;;
21837;SDS011;11081;45.946;6.140;2023-10-19T05:30:58;3.92;;;2.03;;
21837;SDS011;11081;45.946;6.140;2023-10-19T05:33:26;3.05;;;1.73;;
21837;SDS011;11081;45.946;6.140;2023-10-19T05:35:56;9.18;;;3.00;;
21837;SDS011;11081;45.946;6.140;2023-10-19T05:38:24;8.65;;;3.30;;
21837;SDS011;11081;45.946;6.140;2023-10-19T05:40:53;8.00;;;3.85;;
21837;SDS011;11081;45.946;6.140;2023-10-19T05:43:23;9.13;;;3.33;;
21837;SDS011;11081;45.946;6.140;2023-10-19T05:45:51;6.28;;;2.53;;
21837;SDS011;11081;45.946;6.140;2023-10-19T05:48:20;8.05;;;2.42;;
21837;SDS011;11081;45.946;6.140;2023-10-19T05:50:49;5.35;;;2.50;;
21837;SDS011;11081;45.946;6.140;2023-10-19T05:53:17;3.38;;;2.20;;
21837;SDS011;11081;45.946;6.140;2023-10-19T05:55:48;5.32;;;2.25;;
21837;SDS011;11081;45.946;6.140;2023-10-19T05:58:16;6.65;;;2.40;;
21837;SDS011;11081;45.946;6.140;2023-10-19T06:00:46;2.50;;;2.10;;
21837;SDS011;11081;45.946;6.140;2023-10-19T06:03:16;6.55;;;3.28;;
21837;SDS011;11081;45.946;6.140;2023-10-19T06:05:44;7.22;;;2.80;;
21837;SDS011;11081;45.946;6.140;2023-10-19T06:08:12;9.38;;;2.67;;
21837;SDS011;11081;45.946;6.140;2023-10-19T06:10:40;6.97;;;2.55;;
21837;SDS011;11081;45.946;6.140;2023-10-19T06:13:09;3.67;;;2.15;;
21837;SDS011;11081;45.946;6.140;2023-10-19T06:15:37;7.93;;;2.45;;
21837;SDS011;11081;45.946;6.140;2023-10-19T06:18:06;6.00;;;2.80;;
21837;SDS011;11081;45.946;6.140;2023-10-19T06:20:34;6.25;;;2.05;;
21837;SDS011;11081;45.946;6.140;2023-10-19T06:23:02;6.80;;;2.53;;
21837;SDS011;11081;45.946;6.140;2023-10-19T06:25:32;4.80;;;2.28;;
21837;SDS011;11081;45.946;6.140;2023-10-19T06:28:02;5.53;;;2.10;;
21837;SDS011;11081;45.946;6.140;2023-10-19T06:30:30;4.88;;;2.60;;
21837;SDS011;11081;45.946;6.140;2023-10-19T06:32:59;4.05;;;2.33;;
21837;SDS011;11081;45.946;6.140;2023-10-19T06:35:30;8.63;;;2.58;;
21837;SDS011;11081;45.946;6.140;2023-10-19T06:37:59;7.25;;;2.47;;
21837;SDS011;11081;45.946;6.140;2023-10-19T06:40:30;7.28;;;2.80;;
21837;SDS011;11081;45.946;6.140;2023-10-19T06:42:59;7.78;;;2.83;;
21837;SDS011;11081;45.946;6.140;2023-10-19T06:45:29;9.60;;;2.72;;
21837;SDS011;11081;45.946;6.140;2023-10-19T06:47:57;6.25;;;2.55;;
21837;SDS011;11081;45.946;6.140;2023-10-19T06:50:26;7.50;;;2.70;;
21837;SDS011;11081;45.946;6.140;2023-10-19T06:52:56;8.40;;;2.58;;
21837;SDS011;11081;45.946;6.140;2023-10-19T06:55:24;5.50;;;2.65;;
21837;SDS011;11081;45.946;6.140;2023-10-19T06:57:54;7.80;;;2.90;;
21837;SDS011;11081;45.946;6.140;2023-10-19T07:00:23;4.80;;;2.42;;
21837;SDS011;11081;45.946;6.140;2023-10-19T07:02:54;8.95;;;2.67;;
21837;SDS011;11081;45.946;6.140;2023-10-19T07:05:23;7.30;;;2.42;;
21837;SDS011;11081;45.946;6.140;2023-10-19T07:07:52;6.00;;;3.40;;
21837;SDS011;11081;45.946;6.140;2023-10-19T07:10:23;7.18;;;3.50;;
21837;SDS011;11081;45.946;6.140;2023-10-19T07:12:52;6.35;;;2.88;;
21837;SDS011;11081;45.946;6.140;2023-10-19T07:15:21;5.75;;;2.83;;
21837;SDS011;11081;45.946;6.140;2023-10-19T07:17:50;5.85;;;2.95;;
21837;SDS011;11081;45.946;6.140;2023-10-19T07:20:21;6.60;;;3.30;;
21837;SDS011;11081;45.946;6.140;2023-10-19T07:22:58;6.45;;;3.40;;
21837;SDS011;11081;45.946;6.140;2023-10-19T07:25:34;6.32;;;3.10;;
21837;SDS011;11081;45.946;6.140;2023-10-19T07:28:09;8.80;;;3.55;;
21837;SDS011;11081;45.946;6.140;2023-10-19T07:30:39;4.63;;;2.95;;
21837;SDS011;11081;45.946;6.140;2023-10-19T07:33:07;5.45;;;3.08;;
21837;SDS011;11081;45.946;6.140;2023-10-19T07:35:36;5.22;;;3.42;;
21837;SDS011;11081;45.946;6.140;2023-10-19T07:38:05;7.68;;;3.22;;
21837;SDS011;11081;45.946;6.140;2023-10-19T07:40:35;3.78;;;2.97;;
21837;SDS011;11081;45.946;6.140;2023-10-19T07:43:03;7.43;;;3.42;;
21837;SDS011;11081;45.946;6.140;2023-10-19T07:45:31;8.55;;;2.97;;
21837;SDS011;11081;45.946;6.140;2023-10-19T07:48:01;5.93;;;2.30;;
21837;SDS011;11081;45.946;6.140;2023-10-19T07:50:33;7.10;;;3.05;;
21837;SDS011;11081;45.946;6.140;2023-10-19T07:53:02;5.38;;;2.63;;
21837;SDS011;11081;45.946;6.140;2023-10-19T07:55:31;9.68;;;3.33;;
21837;SDS011;11081;45.946;6.140;2023-10-19T07:58:00;8.75;;;3.10;;
21837;SDS011;11081;45.946;6.140;2023-10-19T08:00:30;4.95;;;2.60;;
21837;SDS011;11081;45.946;6.140;2023-10-19T08:03:00;10.15;;;3.25;;
21837;SDS011;11081;45.946;6.140;2023-10-19T08:05:28;6.78;;;3.05;;
21837;SDS011;11081;45.946;6.140;2023-10-19T08:07:56;8.68;;;2.75;;
21837;SDS011;11081;45.946;6.140;2023-10-19T08:10:26;7.85;;;2.80;;
21837;SDS011;11081;45.946;6.140;2023-10-19T08:12:54;4.10;;;2.80;;
21837;SDS011;11081;45.946;6.140;2023-10-19T08:15:23;6.55;;;2.75;;
21837;SDS011;11081;45.946;6.140;2023-10-19T08:17:52;7.35;;;3.25;;
21837;SDS011;11081;45.946;6.140;2023-10-19T08:20:21;5.80;;;2.97;;
21837;SDS011;11081;45.946;6.140;2023-10-19T08:22:58;4.05;;;2.78;;
21837;SDS011;11081;45.946;6.140;2023-10-19T08:25:28;5.85;;;2.67;;
21837;SDS011;11081;45.946;6.140;2023-10-19T08:27:59;7.35;;;2.80;;
21837;SDS011;11081;45.946;6.140;2023-10-19T08:30:29;4.63;;;2.97;;
21837;SDS011;11081;45.946;6.140;2023-10-19T08:32:57;4.30;;;2.63;;
21837;SDS011;11081;45.946;6.140;2023-10-19T08:35:26;5.80;;;2.80;;
21837;SDS011;11081;45.946;6.140;2023-10-19T08:37:54;9.10;;;2.78;;
21837;SDS011;11081;45.946;6.140;2023-10-19T08:40:24;13.27;;;2.70;;
21837;SDS011;11081;45.946;6.140;2023-10-19T08:42:54;7.90;;;2.63;;
21837;SDS011;11081;45.946;6.140;2023-10-19T08:45:22;5.55;;;2.30;;
21837;SDS011;11081;45.946;6.140;2023-10-19T08:47:54;7.40;;;2.63;;
21837;SDS011;11081;45.946;6.140;2023-10-19T08:50:24;4.68;;;2.58;;
21837;SDS011;11081;45.946;6.140;2023-10-19T08:52:53;6.70;;;2.50;;
21837;SDS011;11081;45.946;6.140;2023-10-19T08:55:22;5.13;;;2.40;;
21837;SDS011;11081;45.946;6.140;2023-10-19T08:58:10;6.45;;;3.65;;
21837;SDS011;11081;45.946;6.140;2023-10-19T09:00:44;6.85;;;3.70;;
21837;SDS011;11081;45.946;6.140;2023-10-19T09:03:17;4.93;;;3.45;;
21837;SDS011;11081;45.946;6.140;2023-10-19T09:05:46;4.80;;;3.03;;
21837;SDS011;11081;45.946;6.140;2023-10-19T09:08:15;4.05;;;2.17;;
21837;SDS011;11081;45.946;6.140;2023-10-19T09:10:45;6.40;;;3.40;;
21837;SDS011;11081;45.946;6.140;2023-10-19T09:13:14;7.82;;;2.70;;
21837;SDS011;11081;45.946;6.140;2023-10-19T09:15:45;3.70;;;2.72;;
21837;SDS011;11081;45.946;6.140;2023-10-19T09:18:14;6.50;;;3.28;;
21837;SDS011;11081;45.946;6.140;2023-10-19T09:20:45;5.10;;;3.03;;
21837;SDS011;11081;45.946;6.140;2023-10-19T09:23:29;10.50;;;4.18;;
21837;SDS011;11081;45.946;6.140;2023-10-19T09:25:58;8.23;;;4.10;;
21837;SDS011;11081;45.946;6.140;2023-10-19T09:28:29;5.93;;;3.20;;
21837;SDS011;11081;45.946;6.140;2023-10-19T09:31:00;6.88;;;3.08;;
21837;SDS011;11081;45.946;6.140;2023-10-19T09:33:30;10.07;;;2.70;;
21837;SDS011;11081;45.946;6.140;2023-10-19T09:36:02;4.53;;;2.95;;
21837;SDS011;11081;45.946;6.140;2023-10-19T09:38:32;9.13;;;2.88;;
21837;SDS011;11081;45.946;6.140;2023-10-19T09:41:01;5.72;;;3.28;;
21837;SDS011;11081;45.946;6.140;2023-10-19T09:43:30;27.60;;;3.95;;
21837;SDS011;11081;45.946;6.140;2023-10-19T09:46:05;7.20;;;3.33;;
21837;SDS011;11081;45.946;6.140;2023-10-19T09:48:37;5.93;;;3.08;;
21837;SDS011;11081;45.946;6.140;2023-10-19T09:51:10;8.57;;;3.40;;
21837;SDS011;11081;45.946;6.140;2023-10-19T09:53:42;7.20;;;3.05;;
21837;SDS011;11081;45.946;6.140;2023-10-19T09:56:15;6.85;;;3.40;;
21837;SDS011;11081;45.946;6.140;2023-10-19T09:58:48;5.18;;;3.35;;
21837;SDS011;11081;45.946;6.140;2023-10-19T10:01:19;7.00;;;3.15;;
21837;SDS011;11081;45.946;6.140;2023-10-19T10:03:48;9.13;;;4.03;;
21837;SDS011;11081;45.946;6.140;2023-10-19T10:06:27;5.63;;;3.90;;
21837;SDS011;11081;45.946;6.140;2023-10-19T10:08:57;5.93;;;3.85;;
21837;SDS011;11081;45.946;6.140;2023-10-19T10:11:26;8.30;;;3.10;;
21837;SDS011;11081;45.946;6.140;2023-10-19T10:13:55;4.32;;;3.15;;
21837;SDS011;11081;45.946;6.140;2023-10-19T10:16:24;8.73;;;3.97;;
21837;SDS011;11081;45.946;6.140;2023-10-19T10:18:54;6.95;;;3.83;;
21837;SDS011;11081;45.946;6.140;2023-10-19T10:21:27;6.13;;;3.20;;
21837;SDS011;11081;45.946;6.140;2023-10-19T10:23:57;5.63;;;3.80;;
21837;SDS011;11081;45.946;6.140;2023-10-19T10:26:27;9.20;;;3.67;;
21837;SDS011;11081;45.946;6.140;2023-10-19T10:29:08;6.55;;;4.00;;
21837;SDS011;11081;45.946;6.140;2023-10-19T10:31:41;9.60;;;4.22;;
21837;SDS011;11081;45.946;6.140;2023-10-19T10:34:11;8.23;;;3.80;;
21837;SDS011;11081;45.946;6.140;2023-10-19T10:37:00;7.60;;;4.40;;
21837;SDS011;11081;45.946;6.140;2023-10-19T10:39:30;10.90;;;4.97;;
21837;SDS011;11081;45.946;6.140;2023-10-19T10:41:58;10.30;;;4.05;;
21837;SDS011;11081;45.946;6.140;2023-10-19T10:44:36;8.15;;;4.13;;
21837;SDS011;11081;45.946;6.140;2023-10-19T10:47:06;7.22;;;4.00;;
21837;SDS011;11081;45.946;6.140;2023-10-19T10:49:51;8.75;;;3.72;;
21837;SDS011;11081;45.946;6.140;2023-10-19T10:52:25;10.93;;;4.88;;
21837;SDS011;11081;45.946;6.140;2023-10-19T10:54:56;11.90;;;4.38;;
21837;SDS011;11081;45.946;6.140;2023-10-19T10:57:29;11.63;;;3.47;;
21837;SDS011;11081;45.946;6.140;2023-10-19T11:00:03;6.65;;;3.90;;
21837;SDS011;11081;45.946;6.140;2023-10-19T11:02:34;7.25;;;4.10;;
21837;SDS011;11081;45.946;6.140;2023-10-19T11:05:02;6.88;;;3.60;;
21837;SDS011;11081;45.946;6.140;2023-10-19T11:07:32;9.95;;;3.90;;
21837;SDS011;11081;45.946;6.140;2023-10-19T11:10:00;7.78;;;3.80;;
21837;SDS011;11081;45.946;6.140;2023-10-19T11:12:29;9.90;;;3.47;;
21837;SDS011;11081;45.946;6.140;2023-10-19T11:14:57;5.82;;;3.40;;
21837;SDS011;11081;45.946;6.140;2023-10-19T11:17:28;8.73;;;2.95;;
21837;SDS011;11081;45.946;6.140;2023-10-19T11:19:58;6.97;;;3.50;;
21837;SDS011;11081;45.946;6.140;2023-10-19T11:22:26;6.80;;;2.78;;
21837;SDS011;11081;45.946;6.140;2023-10-19T11:24:56;8.23;;;3.17;;
21837;SDS011;11081;45.946;6.140;2023-10-19T11:27:47;8.10;;;3.20;;
21837;SDS011;11081;45.946;6.140;2023-10-19T11:30:22;8.95;;;3.35;;
21837;SDS011;11081;45.946;6.140;2023-10-19T11:32:51;6.03;;;3.60;;
21837;SDS011;11081;45.946;6.140;2023-10-19T11:35:27;7.38;;;2.83;;
21837;SDS011;11081;45.946;6.140;2023-10-19T11:37:57;8.93;;;3.13;;
21837;SDS011;11081;45.946;6.140;2023-10-19T11:40:27;4.60;;;2.80;;
21837;SDS011;11081;45.946;6.140;2023-10-19T11:42:55;5.40;;;2.88;;
21837;SDS011;11081;45.946;6.140;2023-10-19T11:45:25;5.65;;;2.70;;
21837;SDS011;11081;45.946;6.140;2023-10-19T11:47:53;4.10;;;2.35;;
21837;SDS011;11081;45.946;6.140;2023-10-19T11:50:21;8.85;;;2.80;;
21837;SDS011;11081;45.946;6.140;2023-10-19T11:52:51;5.82;;;2.85;;
21837;SDS011;11081;45.946;6.140;2023-10-19T11:55:19;7.57;;;3.08;;
21837;SDS011;11081;45.946;6.140;2023-10-19T11:57:49;10.43;;;2.67;;
21837;SDS011;11081;45.946;6.140;2023-10-19T12:00:17;8.30;;;4.05;;
21837;SDS011;11081;45.946;6.140;2023-10-19T12:02:49;6.53;;;3.55;;
21837;SDS011;11081;45.946;6.140;2023-10-19T12:05:18;9.50;;;3.35;;
21837;SDS011;11081;45.946;6.140;2023-10-19T12:07:46;8.40;;;3.55;;
21837;SDS011;11081;45.946;6.140;2023-10-19T12:10:16;9.63;;;3.40;;
21837;SDS011;11081;45.946;6.140;2023-10-19T12:12:44;6.43;;;3.15;;
21837;SDS011;11081;45.946;6.140;2023-10-19T12:15:27;9.77;;;3.42;;
21837;SDS011;11081;45.946;6.140;2023-10-19T12:17:57;7.28;;;3.53;;
21837;SDS011;11081;45.946;6.140;2023-10-19T12:20:26;8.43;;;3.47;;
21837;SDS011;11081;45.946;6.140;2023-10-19T12:22:54;6.47;;;3.15;;
21837;SDS011;11081;45.946;6.140;2023-10-19T12:25:22;13.15;;;4.18;;
21837;SDS011;11081;45.946;6.140;2023-10-19T12:28:00;8.75;;;2.97;;
21837;SDS011;11081;45.946;6.140;2023-10-19T12:30:32;6.90;;;2.97;;
21837;SDS011;11081;45.946;6.140;2023-10-19T12:33:03;6.28;;;2.90;;
21837;SDS011;11081;45.946;6.140;2023-10-19T12:35:34;7.53;;;2.67;;
21837;SDS011;11081;45.946;6.140;2023-10-19T12:38:11;8.10;;;3.40;;
21837;SDS011;11081;45.946;6.140;2023-10-19T12:40:43;5.95;;;3.05;;
21837;SDS011;11081;45.946;6.140;2023-10-19T12:43:12;8.70;;;3.25;;
21837;SDS011;11081;45.946;6.140;2023-10-19T12:45:42;8.57;;;3.03;;
21837;SDS011;11081;45.946;6.140;2023-10-19T12:48:17;6.00;;;2.90;;
21837;SDS011;11081;45.946;6.140;2023-10-19T12:50:45;11.30;;;3.22;;
21837;SDS011;11081;45.946;6.140;2023-10-19T12:53:13;11.38;;;3.28;;
21837;SDS011;11081;45.946;6.140;2023-10-19T12:55:41;5.60;;;2.83;;
21837;SDS011;11081;45.946;6.140;2023-10-19T12:58:10;7.13;;;3.00;;
21837;SDS011;11081;45.946;6.140;2023-10-19T13:00:42;11.35;;;3.38;;
21837;SDS011;11081;45.946;6.140;2023-10-19T13:03:11;7.88;;;2.95;;
21837;SDS011;11081;45.946;6.140;2023-10-19T13:05:43;7.47;;;3.42;;
21837;SDS011;11081;45.946;6.140;2023-10-19T13:08:12;8.20;;;3.50;;
21837;SDS011;11081;45.946;6.140;2023-10-19T13:10:46;10.48;;;3.03;;
21837;SDS011;11081;45.946;6.140;2023-10-19T13:13:18;9.10;;;2.95;;
21837;SDS011;11081;45.946;6.140;2023-10-19T13:15:51;7.93;;;3.50;;
21837;SDS011;11081;45.946;6.140;2023-10-19T13:18:20;6.78;;;3.30;;
21837;SDS011;11081;45.946;6.140;2023-10-19T13:20:54;6.10;;;3.40;;
21837;SDS011;11081;45.946;6.140;2023-10-19T13:23:23;8.25;;;3.08;;
21837;SDS011;11081;45.946;6.140;2023-10-19T13:25:51;11.40;;;2.75;;
21837;SDS011;11081;45.946;6.140;2023-10-19T13:28:21;5.53;;;2.78;;
21837;SDS011;11081;45.946;6.140;2023-10-19T13:30:50;4.72;;;2.33;;
21837;SDS011;11081;45.946;6.140;2023-10-19T13:33:21;6.72;;;2.92;;
21837;SDS011;11081;45.946;6.140;2023-10-19T13:35:50;6.57;;;3.20;;
21837;SDS011;11081;45.946;6.140;2023-10-19T13:38:19;8.93;;;3.20;;
21837;SDS011;11081;45.946;6.140;2023-10-19T13:40:47;8.88;;;3.40;;
21837;SDS011;11081;45.946;6.140;2023-10-19T13:43:16;9.27;;;3.45;;
21837;SDS011;11081;45.946;6.140;2023-10-19T13:45:46;7.00;;;3.60;;
21837;SDS011;11081;45.946;6.140;2023-10-19T13:48:16;11.63;;;3.50;;
21837;SDS011;11081;45.946;6.140;2023-10-19T13:50:45;7.45;;;3.53;;
21837;SDS011;11081;45.946;6.140;2023-10-19T13:53:15;10.90;;;3.33;;
21837;SDS011;11081;45.946;6.140;2023-10-19T13:55:43;9.23;;;3.58;;
21837;SDS011;11081;45.946;6.140;2023-10-19T13:58:12;6.03;;;3.28;;
21837;SDS011;11081;45.946;6.140;2023-10-19T14:00:41;7.78;;;3.30;;
21837;SDS011;11081;45.946;6.140;2023-10-19T14:03:10;5.38;;;3.13;;
21837;SDS011;11081;45.946;6.140;2023-10-19T14:05:42;11.27;;;3.55;;
21837;SDS011;11081;45.946;6.140;2023-10-19T14:08:14;9.77;;;3.40;;
21837;SDS011;11081;45.946;6.140;2023-10-19T14:10:44;12.57;;;4.88;;
21837;SDS011;11081;45.946;6.140;2023-10-19T14:13:13;7.68;;;3.85;;
21837;SDS011;11081;45.946;6.140;2023-10-19T14:15:42;7.60;;;3.75;;
21837;SDS011;11081;45.946;6.140;2023-10-19T14:18:10;8.30;;;3.70;;
21837;SDS011;11081;45.946;6.140;2023-10-19T14:20:38;4.78;;;3.45;;
21837;SDS011;11081;45.946;6.140;2023-10-19T14:23:08;7.03;;;3.88;;
21837;SDS011;11081;45.946;6.140;2023-10-19T14:25:37;6.97;;;3.47;;
21837;SDS011;11081;45.946;6.140;2023-10-19T14:28:07;5.43;;;3.22;;
21837;SDS011;11081;45.946;6.140;2023-10-19T14:30:36;6.10;;;3.20;;
21837;SDS011;11081;45.946;6.140;2023-10-19T14:33:04;7.15;;;3.60;;
21837;SDS011;11081;45.946;6.140;2023-10-19T14:35:37;6.70;;;3.67;;
21837;SDS011;11081;45.946;6.140;2023-10-19T14:38:10;5.55;;;3.47;;
21837;SDS011;11081;45.946;6.140;2023-10-19T14:40:41;6.07;;;3.60;;
21837;SDS011;11081;45.946;6.140;2023-10-19T14:43:11;7.95;;;4.00;;
21837;SDS011;11081;45.946;6.140;2023-10-19T14:45:40;9.27;;;3.92;;
21837;SDS011;11081;45.946;6.140;2023-10-19T14:48:08;6.82;;;3.60;;
21837;SDS011;11081;45.946;6.140;2023-10-19T14:50:37;7.07;;;4.10;;
21837;SDS011;11081;45.946;6.140;2023-10-19T14:53:05;8.13;;;4.75;;
21837;SDS011;11081;45.946;6.140;2023-10-19T14:55:34;12.38;;;5.03;;
21837;SDS011;11081;45.946;6.140;2023-10-19T14:58:02;8.93;;;4.95;;
21837;SDS011;11081;45.946;6.140;2023-10-19T15:00:33;22.25;;;5.78;;
21837;SDS011;11081;45.946;6.140;2023-10-19T15:03:03;12.82;;;5.00;;
21837;SDS011;11081;45.946;6.140;2023-10-19T15:05:34;8.43;;;4.78;;
21837;SDS011;11081;45.946;6.140;2023-10-19T15:08:03;8.95;;;4.13;;
21837;SDS011;11081;45.946;6.140;2023-10-19T15:10:35;12.88;;;4.95;;